Time;durP1;ratioP1;P1;durP2;ratioP2;P2;SDS_P1;SDS_P2;PMS_P1;PMS_P2;Temp;Humidity;BMP_temperature;BMP_pressure;BME280_temperature;BME280_humidity;BME280_pressure;Samples;Min_cycle;Max_cycle;Signal;HPM_P1;HPM_P2
2021/08/20 00:01:24;;;;;;;4.00;3.70;;;16.40;99.90;;;;;;5075883;28;20059;-91
2021/08/20 00:03:51;;;;;;;5.70;4.30;;;16.30;99.90;;;;;;5075123;28;20106;-90
2021/08/20 00:06:18;;;;;;;3.97;3.58;;;16.30;99.90;;;;;;5075112;28;20131;-91
2021/08/20 00:08:45;;;;;;;4.00;3.70;;;16.40;99.90;;;;;;5074995;28;20135;-90
2021/08/20 00:11:11;;;;;;;4.68;3.90;;;16.30;99.90;;;;;;5075226;28;20505;-89
2021/08/20 00:13:39;;;;;;;6.05;4.00;;;16.30;99.90;;;;;;5075504;28;20105;-90
2021/08/20 00:16:06;;;;;;;3.70;3.40;;;16.30;99.90;;;;;;5075168;28;20048;-91
2021/08/20 00:18:34;;;;;;;4.18;3.88;;;16.30;99.90;;;;;;5075295;28;20098;-91
2021/08/20 00:21:01;;;;;;;4.18;3.65;;;16.20;99.90;;;;;;5075195;28;20054;-91
2021/08/20 00:23:27;;;;;;;3.83;3.63;;;16.30;99.90;;;;;;5075402;28;20408;-90
2021/08/20 00:25:54;;;;;;;3.95;3.65;;;16.30;99.90;;;;;;5075035;28;20162;-91
2021/08/20 00:28:21;;;;;;;4.05;3.72;;;16.30;99.90;;;;;;5074826;28;20151;-90
2021/08/20 00:30:47;;;;;;;3.80;3.60;;;16.30;99.90;;;;;;5075286;28;20060;-90
2021/08/20 00:33:14;;;;;;;4.20;3.90;;;16.30;99.90;;;;;;5087021;28;20074;-90
2021/08/20 00:35:41;;;;;;;4.43;4.03;;;16.30;99.90;;;;;;5081223;28;20499;-90
2021/08/20 00:38:08;;;;;;;4.18;3.88;;;16.30;99.90;;;;;;5075322;28;20056;-90
2021/08/20 00:40:35;;;;;;;3.60;3.40;;;16.30;99.90;;;;;;5075236;28;20090;-90
2021/08/20 00:43:01;;;;;;;4.50;4.10;;;16.30;99.90;;;;;;5075186;28;20060;-89
2021/08/20 00:45:28;;;;;;;3.80;3.50;;;16.30;99.90;;;;;;5078719;28;20046;-90
2021/08/20 00:47:55;;;;;;;3.38;3.17;;;16.30;99.90;;;;;;5078623;28;20435;-91
2021/08/20 00:50:21;;;;;;;4.18;3.80;;;16.30;99.90;;;;;;5078693;28;20054;-90
2021/08/20 00:52:48;;;;;;;3.83;3.50;;;16.30;99.90;;;;;;5079149;28;20052;-90
2021/08/20 00:55:16;;;;;;;4.35;3.97;;;16.30;99.90;;;;;;5079559;28;20063;-89
2021/08/20 00:57:47;;;;;;;3.42;3.22;;;16.20;99.90;;;;;;5079788;28;20054;-90
2021/08/20 01:00:16;;;;;;;3.67;3.47;;;16.20;99.90;;;;;;5078564;28;20135;-90
2021/08/20 01:02:44;;;;;;;5.03;3.70;;;16.20;99.90;;;;;;5078322;28;20098;-91
2021/08/20 01:05:12;;;;;;;4.15;3.85;;;16.10;99.90;;;;;;5078542;28;20054;-90
2021/08/20 01:07:39;;;;;;;3.75;3.55;;;16.20;99.90;;;;;;5078265;28;20070;-90
2021/08/20 01:10:07;;;;;;;3.88;3.63;;;16.20;99.90;;;;;;5078493;28;20052;-90
2021/08/20 01:12:37;;;;;;;3.65;3.45;;;16.20;99.90;;;;;;5078389;28;20135;-90
2021/08/20 01:15:05;;;;;;;4.72;4.32;;;16.10;99.90;;;;;;5078194;28;20076;-90
2021/08/20 01:17:31;;;;;;;3.97;3.60;;;16.10;99.90;;;;;;5078203;28;20055;-90
2021/08/20 01:20:00;;;;;;;4.53;4.13;;;16.10;99.90;;;;;;5078607;28;20052;-90
2021/08/20 01:22:26;;;;;;;3.65;3.45;;;16.10;99.90;;;;;;5078309;28;20056;-90
2021/08/20 01:24:59;;;;;;;4.00;3.80;;;16.10;99.90;;;;;;5078162;28;20040;-90
2021/08/20 01:27:26;;;;;;;3.95;3.75;;;16.10;99.90;;;;;;5074321;28;20062;-91
2021/08/20 01:29:53;;;;;;;3.80;3.60;;;16.10;99.90;;;;;;5074636;28;20454;-91
2021/08/20 01:32:21;;;;;;;4.07;3.78;;;16.00;99.90;;;;;;5074581;28;20128;-90
2021/08/20 01:34:47;;;;;;;6.88;4.00;;;16.10;99.90;;;;;;5074540;28;20063;-90
2021/08/20 01:37:14;;;;;;;4.30;4.00;;;16.10;99.90;;;;;;5074272;28;20044;-91
2021/08/20 01:39:41;;;;;;;4.05;3.75;;;16.10;99.90;;;;;;5074363;28;20053;-90
2021/08/20 01:42:08;;;;;;;4.40;4.10;;;16.10;99.90;;;;;;5074142;28;20524;-91
2021/08/20 01:44:34;;;;;;;4.20;3.90;;;16.00;99.90;;;;;;5074110;28;20407;-90
2021/08/20 01:47:01;;;;;;;3.72;3.47;;;16.00;99.90;;;;;;5073860;28;20041;-90
2021/08/20 01:49:28;;;;;;;3.50;3.30;;;16.10;99.90;;;;;;5073830;28;20536;-90
2021/08/20 01:51:55;;;;;;;4.25;3.90;;;16.10;99.90;;;;;;5079894;28;20028;-91
2021/08/20 01:54:21;;;;;;;5.88;4.28;;;16.10;99.90;;;;;;5086902;28;20080;-89
2021/08/20 01:56:48;;;;;;;4.22;3.92;;;16.10;99.90;;;;;;5074084;28;20048;-90
2021/08/20 01:59:15;;;;;;;4.47;3.67;;;16.10;99.90;;;;;;5073744;28;20048;-90
2021/08/20 02:01:42;;;;;;;4.03;3.72;;;16.10;99.90;;;;;;5073739;28;20070;-90
2021/08/20 02:04:09;;;;;;;4.07;3.78;;;16.10;99.90;;;;;;5073795;28;20064;-90
2021/08/20 02:06:35;;;;;;;3.70;3.42;;;16.10;99.90;;;;;;5073372;28;20048;-90
2021/08/20 02:09:03;;;;;;;4.15;3.75;;;16.10;99.90;;;;;;5073131;28;20493;-90
2021/08/20 02:11:30;;;;;;;5.15;4.28;;;16.10;99.90;;;;;;5073616;28;20049;-91
2021/08/20 02:13:57;;;;;;;4.93;3.58;;;16.00;99.90;;;;;;5073407;28;20048;-90
2021/08/20 02:16:24;;;;;;;4.30;3.88;;;16.00;99.90;;;;;;5073247;28;20082;-90
2021/08/20 02:18:51;;;;;;;4.25;3.95;;;16.00;99.90;;;;;;5073187;28;20044;-90
2021/08/20 02:21:18;;;;;;;4.38;3.97;;;15.90;99.90;;;;;;5073086;28;20054;-88
2021/08/20 02:23:44;;;;;;;5.70;4.28;;;15.90;99.90;;;;;;5073108;28;20182;-90
2021/08/20 02:26:13;;;;;;;5.03;4.07;;;15.80;99.90;;;;;;5072949;28;20051;-89
2021/08/20 02:28:40;;;;;;;4.80;4.30;;;15.80;99.90;;;;;;5076730;28;20048;-90
2021/08/20 02:31:07;;;;;;;4.43;4.05;;;15.90;99.90;;;;;;5076841;28;20048;-90
2021/08/20 02:33:34;;;;;;;4.57;4.18;;;15.90;99.90;;;;;;5076538;28;20090;-90
2021/08/20 02:36:06;;;;;;;5.47;4.40;;;15.90;99.90;;;;;;5076115;28;20056;-90
2021/08/20 02:38:33;;;;;;;5.60;5.10;;;15.90;99.90;;;;;;5076527;28;20074;-90
2021/08/20 02:41:00;;;;;;;6.78;4.97;;;15.90;99.90;;;;;;5076438;28;20408;-89
2021/08/20 02:43:27;;;;;;;4.72;4.35;;;15.80;99.90;;;;;;5076491;28;20416;-91
2021/08/20 02:45:53;;;;;;;4.95;4.53;;;15.90;99.90;;;;;;5076337;28;20050;-90
2021/08/20 02:48:20;;;;;;;8.57;5.60;;;15.90;99.90;;;;;;5076134;28;20052;-90
2021/08/20 02:50:47;;;;;;;5.10;4.70;;;15.80;99.90;;;;;;5076231;28;20107;-90
2021/08/20 02:53:14;;;;;;;5.25;4.75;;;15.90;99.90;;;;;;5076340;28;20056;-90
2021/08/20 02:55:40;;;;;;;5.05;4.65;;;15.80;99.90;;;;;;5076201;28;20054;-90
2021/08/20 02:58:07;;;;;;;5.22;4.72;;;15.80;99.90;;;;;;5076211;28;20052;-90
2021/08/20 03:00:34;;;;;;;5.38;4.45;;;15.80;99.90;;;;;;5076158;28;20135;-90
2021/08/20 03:03:04;;;;;;;4.90;4.40;;;15.80;99.90;;;;;;5076046;28;20196;-90
2021/08/20 03:05:31;;;;;;;4.30;4.00;;;15.80;99.90;;;;;;5075954;28;20150;-90
2021/08/20 03:07:57;;;;;;;4.43;4.13;;;15.80;99.90;;;;;;5075787;28;20051;-90
2021/08/20 03:10:24;;;;;;;5.22;4.78;;;15.80;99.90;;;;;;5077353;28;20420;-90
2021/08/20 03:12:51;;;;;;;4.50;4.20;;;15.80;99.90;;;;;;5094152;28;20075;-90
2021/08/20 03:15:18;;;;;;;4.72;4.25;;;15.80;99.90;;;;;;5077618;28;20051;-90
2021/08/20 03:17:45;;;;;;;4.88;4.47;;;15.90;99.90;;;;;;5076879;28;20044;-90
2021/08/20 03:20:12;;;;;;;5.13;4.40;;;15.90;99.90;;;;;;5076854;28;20441;-89
2021/08/20 03:22:39;;;;;;;5.30;4.80;;;15.80;99.90;;;;;;5076460;28;20127;-90
2021/08/20 03:25:06;;;;;;;5.05;4.65;;;15.90;99.90;;;;;;5075853;28;20404;-90
2021/08/20 03:27:33;;;;;;;4.78;4.38;;;15.80;99.90;;;;;;5075503;28;20532;-90
2021/08/20 03:30:00;;;;;;;5.28;4.57;;;15.90;99.90;;;;;;5075429;28;20056;-90
2021/08/20 03:32:27;;;;;;;4.72;4.32;;;15.90;99.90;;;;;;5076044;28;20087;-90
2021/08/20 03:34:54;;;;;;;4.60;4.30;;;15.80;99.90;;;;;;5076014;28;20055;-91
2021/08/20 03:37:21;;;;;;;5.07;4.60;;;15.70;99.90;;;;;;5075983;28;20131;-90
2021/08/20 03:39:48;;;;;;;6.63;4.72;;;15.70;99.90;;;;;;5076242;28;20393;-90
2021/08/20 03:42:16;;;;;;;5.60;5.00;;;15.70;99.90;;;;;;5076065;28;20127;-91
2021/08/20 03:44:42;;;;;;;5.93;5.38;;;15.70;99.90;;;;;;5076000;28;20048;-91
2021/08/20 03:47:09;;;;;;;6.70;6.00;;;15.60;99.90;;;;;;5075971;28;20135;-91
2021/08/20 03:49:36;;;;;;;6.60;5.90;;;15.70;99.90;;;;;;5076304;28;20048;-91
2021/08/20 03:52:03;;;;;;;6.22;5.72;;;15.60;99.90;;;;;;5075898;28;20135;-90
2021/08/20 03:54:30;;;;;;;6.03;5.55;;;15.70;99.90;;;;;;5075858;28;20419;-91
2021/08/20 03:56:57;;;;;;;5.32;5.00;;;15.70;99.90;;;;;;5075825;28;20481;-90
2021/08/20 03:59:24;;;;;;;5.47;5.05;;;15.60;99.90;;;;;;5075841;28;20090;-90
2021/08/20 04:01:51;;;;;;;5.68;5.15;;;15.60;99.90;;;;;;5076133;28;20044;-90
2021/08/20 04:04:18;;;;;;;6.28;5.75;;;15.60;99.90;;;;;;5075914;28;20051;-90
2021/08/20 04:06:44;;;;;;;5.82;5.22;;;15.60;99.90;;;;;;5093305;28;20106;-90
2021/08/20 04:09:11;;;;;;;6.07;5.57;;;15.50;99.90;;;;;;5075496;28;20052;-90
2021/08/20 04:11:38;;;;;;;6.93;5.70;;;15.50;99.90;;;;;;5075716;28;20050;-90
2021/08/20 04:14:04;;;;;;;6.28;5.68;;;15.50;99.90;;;;;;5075884;28;20118;-90
2021/08/20 04:16:34;;;;;;;5.85;5.28;;;15.60;99.90;;;;;;5092856;28;20051;-91
2021/08/20 04:19:01;;;;;;;5.95;5.43;;;15.50;99.90;;;;;;5076088;28;20061;-91
2021/08/20 04:21:28;;;;;;;6.93;5.40;;;15.50;99.90;;;;;;5079023;28;20127;-91
2021/08/20 04:23:55;;;;;;;6.32;5.72;;;15.60;99.90;;;;;;5078580;28;20048;-91
2021/08/20 04:26:21;;;;;;;5.88;5.38;;;15.60;99.90;;;;;;5078951;28;20048;-90
2021/08/20 04:28:51;;;;;;;6.60;6.00;;;15.60;99.90;;;;;;5100186;28;20195;-90
2021/08/20 04:31:19;;;;;;;6.40;5.80;;;15.60;99.90;;;;;;5116064;28;20071;-91
2021/08/20 04:33:46;;;;;;;6.25;5.75;;;15.50;99.90;;;;;;5084100;28;20044;-90
2021/08/20 04:36:13;;;;;;;6.00;5.50;;;15.60;99.90;;;;;;5078650;28;20052;-91
2021/08/20 04:38:40;;;;;;;6.88;6.22;;;15.60;99.90;;;;;;5078951;28;20109;-90
2021/08/20 04:41:07;;;;;;;7.80;6.22;;;15.60;99.90;;;;;;5079012;28;20135;-91
2021/08/20 04:43:38;;;;;;;7.40;6.20;;;15.60;99.90;;;;;;5079093;28;20048;-91
2021/08/20 04:46:05;;;;;;;6.30;5.68;;;15.70;99.90;;;;;;5078973;28;20051;-90
2021/08/20 04:48:33;;;;;;;8.95;6.50;;;15.70;99.90;;;;;;5078924;28;20451;-90
2021/08/20 04:50:59;;;;;;;6.38;5.78;;;15.70;99.90;;;;;;5079062;28;20058;-90
2021/08/20 04:53:30;;;;;;;6.63;5.85;;;15.80;99.90;;;;;;5078929;28;20051;-90
2021/08/20 04:55:57;;;;;;;6.72;6.13;;;15.90;99.90;;;;;;5078689;28;20052;-91
2021/08/20 04:58:29;;;;;;;6.82;5.43;;;15.90;99.90;;;;;;5096420;28;20044;-90
2021/08/20 05:00:56;;;;;;;5.97;5.28;;;15.90;99.90;;;;;;5078697;28;20040;-90
2021/08/20 05:03:24;;;;;;;7.35;5.55;;;16.00;99.90;;;;;;5078716;28;20146;-90
2021/08/20 05:05:52;;;;;;;7.47;5.47;;;16.10;99.90;;;;;;5078408;28;20048;-91
2021/08/20 05:08:19;;;;;;;5.47;4.95;;;16.10;99.90;;;;;;5096487;28;20225;-91
2021/08/20 05:10:46;;;;;;;6.57;5.65;;;16.10;99.90;;;;;;5096458;28;20469;-91
2021/08/20 05:13:12;;;;;;;5.60;5.18;;;16.20;99.90;;;;;;5078599;28;20495;-90
2021/08/20 05:15:39;;;;;;;5.72;5.25;;;16.20;99.90;;;;;;5078576;28;20139;-90
2021/08/20 05:18:06;;;;;;;5.63;5.07;;;16.30;99.90;;;;;;5078329;28;20064;-90
2021/08/20 05:20:33;;;;;;;9.32;5.30;;;16.40;99.90;;;;;;5078458;28;20125;-91
2021/08/20 05:22:59;;;;;;;5.43;4.63;;;16.40;99.90;;;;;;5078250;28;20052;-91
2021/08/20 05:25:31;;;;;;;5.75;4.75;;;16.40;99.90;;;;;;5078455;28;20052;-91
2021/08/20 05:27:58;;;;;;;5.53;4.97;;;16.40;99.90;;;;;;5078337;28;20074;-90
2021/08/20 05:30:25;;;;;;;6.15;4.53;;;16.50;99.90;;;;;;5077824;28;20087;-90
2021/08/20 05:32:52;;;;;;;4.47;4.18;;;16.60;99.90;;;;;;5078498;28;20048;-91
2021/08/20 05:35:19;;;;;;;4.88;4.30;;;16.70;99.90;;;;;;5078371;28;20048;-91
2021/08/20 05:37:46;;;;;;;5.20;4.35;;;16.80;99.90;;;;;;5078861;28;20052;-90
2021/08/20 05:40:14;;;;;;;4.10;3.78;;;16.90;99.90;;;;;;5078777;28;20052;-91
2021/08/20 05:42:42;;;;;;;3.80;3.50;;;17.00;99.90;;;;;;5079557;28;20048;-90
2021/08/20 05:45:09;;;;;;;5.50;4.13;;;17.10;99.90;;;;;;5078064;28;20134;-91
2021/08/20 05:47:37;;;;;;;3.90;3.60;;;17.20;99.90;;;;;;5078344;28;20433;-90
2021/08/20 05:50:06;;;;;;;4.38;3.92;;;17.30;99.90;;;;;;5082024;28;20055;-91
2021/08/20 05:52:38;;;;;;;4.05;3.75;;;17.40;99.90;;;;;;5088891;28;20044;-91
2021/08/20 05:55:10;;;;;;;4.25;3.95;;;17.40;99.90;;;;;;5078142;28;20455;-90
2021/08/20 05:57:37;;;;;;;4.00;3.70;;;17.50;99.90;;;;;;5077655;28;20074;-90
2021/08/20 06:00:06;;;;;;;6.75;4.32;;;17.60;99.90;;;;;;5076246;28;20552;-90
2021/08/20 06:02:32;;;;;;;4.47;4.07;;;17.60;99.90;;;;;;5077424;28;20142;-91
2021/08/20 06:05:00;;;;;;;4.45;3.63;;;17.80;99.90;;;;;;5077120;28;20122;-90
2021/08/20 06:07:26;;;;;;;4.28;3.95;;;17.90;99.90;;;;;;5077372;28;20131;-90
2021/08/20 06:09:53;;;;;;;4.03;3.65;;;18.10;99.90;;;;;;5076520;28;20492;-90
2021/08/20 06:12:20;;;;;;;5.45;4.15;;;18.30;99.90;;;;;;5076299;28;20093;-90
2021/08/20 06:14:46;;;;;;;3.97;3.35;;;18.80;99.90;;;;;;5076795;28;20048;-91
2021/08/20 06:17:16;;;;;;;4.68;3.88;;;19.70;99.90;;;;;;5077061;28;20040;-90
2021/08/20 06:19:43;;;;;;;4.25;3.50;;;20.40;99.90;;;;;;5076815;28;20135;-91
2021/08/20 06:22:09;;;;;;;3.60;3.00;;;20.50;99.90;;;;;;5076871;28;20103;-91
2021/08/20 06:24:36;;;;;;;2.97;2.78;;;20.50;99.90;;;;;;5076703;28;20155;-90
2021/08/20 06:27:04;;;;;;;4.20;2.80;;;20.40;99.90;;;;;;5072903;28;20048;-90
2021/08/20 06:29:31;;;;;;;5.13;3.67;;;20.20;99.90;;;;;;5073164;28;20128;-90
2021/08/20 06:31:57;;;;;;;4.15;3.35;;;19.90;99.90;;;;;;5072779;28;20048;-90
2021/08/20 06:34:24;;;;;;;3.97;3.50;;;19.60;99.90;;;;;;5073146;28;20049;-90
2021/08/20 06:36:51;;;;;;;4.82;3.40;;;19.40;99.90;;;;;;5073086;28;20055;-91
2021/08/20 06:39:18;;;;;;;4.07;3.72;;;19.40;99.90;;;;;;5072709;28;20052;-90
2021/08/20 06:41:45;;;;;;;3.13;2.92;;;19.40;99.90;;;;;;5072274;28;20063;-90
2021/08/20 06:44:11;;;;;;;2.58;2.30;;;19.30;99.90;;;;;;5073143;28;20135;-91
2021/08/20 06:46:38;;;;;;;2.47;2.28;;;19.40;99.90;;;;;;5072614;28;20135;-91
2021/08/20 06:49:05;;;;;;;2.67;2.47;;;19.50;99.90;;;;;;5072974;28;20140;-90
2021/08/20 06:51:31;;;;;;;2.58;2.38;;;19.60;99.90;;;;;;5073065;28;20055;-90
2021/08/20 06:53:58;;;;;;;4.30;2.53;;;19.80;99.90;;;;;;5072934;28;20139;-90
2021/08/20 06:56:25;;;;;;;2.80;2.22;;;19.90;99.90;;;;;;5072926;28;20501;-90
2021/08/20 06:58:52;;;;;;;1.88;1.83;;;20.20;99.90;;;;;;5072967;28;20044;-90
2021/08/20 07:01:18;;;;;;;2.80;2.30;;;20.50;99.90;;;;;;5073156;28;20553;-92
2021/08/20 07:03:45;;;;;;;2.25;2.13;;;20.80;99.90;;;;;;5072782;28;20223;-91
2021/08/20 07:06:20;;;;;;;1.92;1.83;;;21.00;99.90;;;;;;5072805;28;20048;-90
2021/08/20 07:08:51;;;;;;;2.13;2.03;;;21.30;99.90;;;;;;5073107;28;20048;-90
2021/08/20 07:11:19;;;;;;;2.60;2.25;;;21.70;99.90;;;;;;5094690;28;20049;-91
2021/08/20 07:13:47;;;;;;;2.22;2.13;;;21.70;99.90;;;;;;5080616;28;20139;-90
2021/08/20 07:16:14;;;;;;;1.85;1.75;;;21.80;99.90;;;;;;5072657;28;20052;-91
2021/08/20 07:18:41;;;;;;;2.00;1.90;;;21.90;99.90;;;;;;5072435;28;20326;-91
2021/08/20 07:21:08;;;;;;;1.80;1.70;;;22.10;99.90;;;;;;5072535;28;20055;-90
2021/08/20 07:23:35;;;;;;;2.75;2.15;;;22.20;99.90;;;;;;5072925;28;20056;-92
2021/08/20 07:26:04;;;;;;;2.45;2.25;;;22.00;99.90;;;;;;5071733;28;20135;-93
2021/08/20 07:28:31;;;;;;;4.38;2.05;;;22.10;99.90;;;;;;5072196;28;20156;-91
2021/08/20 07:30:58;;;;;;;1.95;1.80;;;22.00;99.90;;;;;;5072111;28;20135;-91
2021/08/20 07:33:25;;;;;;;2.22;2.13;;;22.00;99.90;;;;;;5072587;28;20481;-90
2021/08/20 07:35:52;;;;;;;2.28;2.17;;;21.80;99.90;;;;;;5071916;28;20519;-92
2021/08/20 07:38:19;;;;;;;2.72;2.53;;;21.70;99.90;;;;;;5072417;28;20040;-90
2021/08/20 07:40:46;;;;;;;2.10;2.00;;;21.40;99.90;;;;;;5072371;28;20125;-90
2021/08/20 07:43:13;;;;;;;2.50;2.30;;;21.40;99.90;;;;;;5071591;28;20133;-90
2021/08/20 07:45:40;;;;;;;3.58;2.40;;;21.30;99.90;;;;;;5071717;28;20131;-91
2021/08/20 07:48:07;;;;;;;2.30;2.10;;;21.30;99.90;;;;;;5072047;28;20140;-91
2021/08/20 07:50:34;;;;;;;2.17;2.08;;;21.10;99.90;;;;;;5071442;28;20113;-90
2021/08/20 07:53:01;;;;;;;2.88;2.22;;;21.00;99.90;;;;;;5074146;28;20059;-91
2021/08/20 07:55:28;;;;;;;2.63;2.35;;;21.00;99.90;;;;;;5073177;28;20063;-89
2021/08/20 07:57:55;;;;;;;2.55;2.28;;;20.80;99.90;;;;;;5076128;28;20055;-90
2021/08/20 08:00:24;;;;;;;2.15;1.98;;;20.70;99.90;;;;;;5075520;28;20496;-91
2021/08/20 08:02:52;;;;;;;2.63;2.40;;;20.70;99.90;;;;;;5076652;28;20049;-93
2021/08/20 08:05:21;;;;;;;2.95;2.50;;;20.60;99.90;;;;;;5078696;28;20059;-88
2021/08/20 08:07:53;;;;;;;2.95;2.75;;;20.50;99.90;;;;;;5079780;28;20055;-91
2021/08/20 08:10:21;;;;;;;2.75;2.55;;;20.30;99.90;;;;;;5076061;28;20109;-91
2021/08/20 08:12:49;;;;;;;2.67;2.40;;;20.30;99.90;;;;;;5076253;28;20075;-92
2021/08/20 08:15:16;;;;;;;2.70;2.50;;;20.20;99.90;;;;;;5076342;28;20106;-90
2021/08/20 08:17:43;;;;;;;2.78;2.58;;;20.30;99.90;;;;;;5075926;28;20560;-90
2021/08/20 08:20:12;;;;;;;3.67;2.60;;;20.50;99.90;;;;;;5075730;28;20492;-90
2021/08/20 08:22:39;;;;;;;6.13;2.88;;;21.10;99.90;;;;;;5075672;28;20493;-89
2021/08/20 08:25:07;;;;;;;4.68;3.10;;;21.40;99.90;;;;;;5075697;28;20515;-90
2021/08/20 08:27:56;;;;;;;14.48;3.00;;;21.50;99.90;;;;;;5075741;28;20057;-90
2021/08/20 08:30:26;;;;;;;3.05;2.35;;;21.40;99.90;;;;;;5092134;28;20048;-90
2021/08/20 08:32:54;;;;;;;2.97;2.50;;;21.30;99.90;;;;;;5079544;28;20048;-88
2021/08/20 08:35:22;;;;;;;2.92;2.80;;;21.20;99.90;;;;;;5075750;28;20131;-89
2021/08/20 08:37:48;;;;;;;2.58;2.47;;;21.20;99.90;;;;;;5076017;28;20048;-92
2021/08/20 08:40:16;;;;;;;3.15;2.38;;;20.90;99.90;;;;;;5073562;28;20053;-89
2021/08/20 08:42:43;;;;;;;4.10;2.58;;;20.80;99.90;;;;;;5072110;28;20052;-91
2021/08/20 08:45:14;;;;;;;7.75;2.97;;;20.70;99.90;;;;;;5074542;28;20044;-89
2021/08/20 08:47:42;;;;;;;3.45;2.53;;;20.60;99.90;;;;;;5074783;28;20060;-90
2021/08/20 08:50:11;;;;;;;3.30;2.55;;;20.60;99.90;;;;;;5075226;28;20508;-90
2021/08/20 08:52:39;;;;;;;3.50;2.50;;;20.60;99.90;;;;;;5075057;28;20097;-91
2021/08/20 08:55:08;;;;;;;3.85;2.58;;;20.70;99.90;;;;;;5075400;28;20052;-90
2021/08/20 08:57:36;;;;;;;3.38;2.58;;;20.70;99.90;;;;;;5075411;28;20054;-91
2021/08/20 09:00:06;;;;;;;8.75;3.00;;;20.70;99.90;;;;;;5075059;28;20058;-90
2021/08/20 09:02:36;;;;;;;3.33;2.65;;;20.90;99.90;;;;;;5074848;28;20106;-90
2021/08/20 09:05:12;;;;;;;2.55;2.35;;;21.60;99.90;;;;;;5073841;28;20052;-90
2021/08/20 09:07:40;;;;;;;3.53;2.65;;;22.80;99.90;;;;;;5074918;28;20090;-90
2021/08/20 09:10:20;;;;;;;2.10;2.00;;;23.70;99.90;;;;;;5074843;28;20040;-89
2021/08/20 09:12:57;;;;;;;2.42;2.25;;;24.20;99.90;;;;;;5074163;28;20140;-91
2021/08/20 09:15:27;;;;;;;3.38;2.03;;;25.10;99.90;;;;;;5074819;28;20531;-91
2021/08/20 09:18:00;;;;;;;3.10;1.92;;;27.10;99.90;;;;;;5074846;28;20048;-91
2021/08/20 09:20:28;;;;;;;3.65;2.33;;;29.70;97.00;;;;;;5074531;28;20143;-89
2021/08/20 09:23:01;;;;;;;2.58;2.38;;;31.70;90.60;;;;;;5075466;28;20053;-91
2021/08/20 09:25:35;;;;;;;3.25;2.10;;;32.20;80.50;;;;;;5074544;28;20469;-89
2021/08/20 09:28:22;;;;;;;2.05;1.85;;;31.50;80.70;;;;;;5088964;28;20131;-88
2021/08/20 09:30:55;;;;;;;3.17;1.85;;;33.00;77.30;;;;;;5094508;28;20058;-88
2021/08/20 09:33:31;;;;;;;3.90;1.85;;;33.30;72.50;;;;;;5094527;28;20126;-94
2021/08/20 09:36:21;;;;;;;4.00;2.08;;;32.80;71.30;;;;;;5083865;28;20566;-89
2021/08/20 09:38:56;;;;;;;8.48;2.65;;;30.50;74.10;;;;;;5083249;28;20068;-88
2021/08/20 09:41:41;;;;;;;6.97;1.95;;;31.10;78.20;;;;;;5094588;28;20076;-89
2021/08/20 09:44:15;;;;;;;1.80;1.70;;;33.50;70.80;;;;;;5096295;28;20116;-88
2021/08/20 09:46:46;;;;;;;3.53;2.20;;;33.70;68.10;;;;;;5095170;28;20134;-88
2021/08/20 09:49:15;;;;;;;2.75;2.10;;;31.60;69.00;;;;;;5100115;28;20063;-87
2021/08/20 09:51:49;;;;;;;1.95;1.85;;;30.00;73.20;;;;;;5109533;28;20047;-88
2021/08/20 09:54:18;;;;;;;1.95;1.83;;;29.00;76.70;;;;;;5094504;28;20055;-89
2021/08/20 09:56:58;;;;;;;2.63;1.70;;;28.00;80.20;;;;;;5093961;28;20143;-89
2021/08/20 09:59:29;;;;;;;2.00;1.90;;;27.90;82.70;;;;;;5080645;28;20075;-88
2021/08/20 10:01:59;;;;;;;2.13;1.80;;;29.50;82.70;;;;;;5074762;28;20564;-88
2021/08/20 10:04:28;;;;;;;2.10;1.70;;;31.40;76.20;;;;;;5073667;28;20059;-89
2021/08/20 10:06:56;;;;;;;1.60;1.50;;;34.20;70.20;;;;;;5073905;28;20076;-89
2021/08/20 10:09:23;;;;;;;1.73;1.50;;;35.40;64.20;;;;;;5073853;28;20478;-88
2021/08/20 10:11:52;;;;;;;4.40;2.00;;;35.40;60.00;;;;;;5106796;28;20054;-87
2021/08/20 10:14:24;;;;;;;1.40;1.40;;;36.70;59.80;;;;;;5085120;28;20051;-90
2021/08/20 10:16:50;;;;;;;1.85;1.40;;;37.30;57.00;;;;;;5093664;28;20048;-89
2021/08/20 10:19:18;;;;;;;6.75;2.00;;;37.80;55.40;;;;;;5094602;28;20054;-90
2021/08/20 10:21:45;;;;;;;2.70;1.52;;;35.50;55.30;;;;;;5094185;28;20078;-89
2021/08/20 10:24:13;;;;;;;2.65;1.70;;;34.30;58.00;;;;;;5093372;28;20045;-88
2021/08/20 10:26:54;;;;;;;2.30;1.65;;;34.10;57.70;;;;;;5091930;28;20059;-88
2021/08/20 10:29:30;;;;;;;1.70;1.60;;;32.20;60.70;;;;;;5082467;28;20044;-87
2021/08/20 10:31:58;;;;;;;2.85;1.48;;;32.60;60.40;;;;;;5075328;28;20428;-88
2021/08/20 10:34:32;;;;;;;2.03;1.70;;;32.00;61.30;;;;;;5084494;28;20075;-88
2021/08/20 10:37:19;;;;;;;2.95;1.50;;;31.30;62.30;;;;;;5074063;28;20056;-88
2021/08/20 10:39:50;;;;;;;2.67;1.98;;;30.20;63.90;;;;;;5084365;28;20131;-88
2021/08/20 10:42:37;;;;;;;1.75;1.65;;;29.20;65.20;;;;;;5073283;28;20051;-88
2021/08/20 10:45:07;;;;;;;2.22;1.40;;;29.30;66.40;;;;;;5072462;28;20037;-88
2021/08/20 10:47:35;;;;;;;1.30;1.30;;;28.70;67.20;;;;;;5072611;28;20055;-87
2021/08/20 10:50:13;;;;;;;2.20;1.50;;;28.60;68.60;;;;;;5073527;28;20189;-88
2021/08/20 10:52:48;;;;;;;1.60;1.50;;;27.80;69.10;;;;;;5072937;28;20128;-88
2021/08/20 10:55:26;;;;;;;1.83;1.73;;;27.20;71.20;;;;;;5072705;28;20045;-87
2021/08/20 10:58:02;;;;;;;1.80;1.70;;;26.70;72.00;;;;;;5072862;28;20135;-88
2021/08/20 11:00:31;;;;;;;1.60;1.50;;;26.90;73.60;;;;;;5072899;28;20115;-88
2021/08/20 11:03:01;;;;;;;3.72;1.67;;;27.20;73.10;;;;;;5073682;28;20044;-89
2021/08/20 11:05:42;;;;;;;1.83;1.73;;;27.00;73.40;;;;;;5076008;28;20082;-88
2021/08/20 11:08:27;;;;;;;1.77;1.60;;;26.70;75.30;;;;;;5073594;28;20136;-88
2021/08/20 11:10:55;;;;;;;3.00;1.17;;;26.40;74.70;;;;;;5091768;28;20045;-88
2021/08/20 11:13:22;;;;;;;1.85;1.45;;;26.60;75.40;;;;;;5076647;28;20075;-87
2021/08/20 11:15:51;;;;;;;1.60;1.48;;;26.40;73.70;;;;;;5106679;28;20052;-88
2021/08/20 11:18:39;;;;;;;2.78;1.38;;;26.30;73.30;;;;;;5072388;28;20048;-89
2021/08/20 11:21:06;;;;;;;2.53;1.70;;;26.60;73.10;;;;;;5072391;28;20127;-87
2021/08/20 11:23:32;;;;;;;4.28;1.42;;;26.80;75.40;;;;;;5105961;28;20408;-88
2021/08/20 11:26:03;;;;;;;1.77;1.30;;;26.70;73.80;;;;;;5106039;28;20053;-89
2021/08/20 11:28:39;;;;;;;1.55;1.50;;;26.30;74.80;;;;;;5071353;28;20135;-88
2021/08/20 11:31:11;;;;;;;1.92;1.63;;;25.70;76.60;;;;;;5071685;28;20053;-89
2021/08/20 11:33:43;;;;;;;2.03;1.80;;;25.30;80.50;;;;;;5072110;28;20044;-91
2021/08/20 11:36:14;;;;;;;1.63;1.48;;;25.60;81.30;;;;;;5072222;28;20048;-88
2021/08/20 11:38:43;;;;;;;3.20;1.50;;;25.80;79.70;;;;;;5071890;28;20140;-89
2021/08/20 11:41:22;;;;;;;1.52;1.42;;;26.20;78.00;;;;;;5071602;28;20143;-89
2021/08/20 11:43:56;;;;;;;1.48;1.38;;;26.00;77.30;;;;;;5071707;28;20052;-89
2021/08/20 11:46:35;;;;;;;2.17;1.48;;;26.00;79.60;;;;;;5071383;28;20493;-88
2021/08/20 11:49:03;;;;;;;1.27;1.27;;;26.70;79.40;;;;;;5071804;28;20508;-88
2021/08/20 11:51:36;;;;;;;1.40;1.25;;;27.90;74.80;;;;;;5071809;28;20139;-86
2021/08/20 11:54:11;;;;;;;1.50;1.40;;;28.40;73.20;;;;;;5071763;28;20135;-88
2021/08/20 11:56:52;;;;;;;4.63;1.67;;;28.40;73.70;;;;;;5071231;28;20825;-88
2021/08/20 11:59:21;;;;;;;1.40;1.40;;;28.00;74.00;;;;;;5071743;28;20058;-88
2021/08/20 12:01:53;;;;;;;2.22;2.03;;;27.40;75.40;;;;;;5072198;28;20128;-87
2021/08/20 12:04:37;;;;;;;1.65;1.55;;;26.70;76.80;;;;;;5071565;28;20505;-88
2021/08/20 12:07:05;;;;;;;3.20;1.50;;;26.00;78.70;;;;;;5104964;28;20071;-87
2021/08/20 12:09:34;;;;;;;1.48;1.40;;;25.60;81.30;;;;;;5105369;28;20048;-87
2021/08/20 12:12:01;;;;;;;1.67;1.40;;;25.30;82.40;;;;;;5071651;28;20044;-88
2021/08/20 12:14:48;;;;;;;1.70;1.60;;;25.00;85.10;;;;;;5071269;28;20045;-87
2021/08/20 12:17:23;;;;;;;1.60;1.42;;;25.40;85.50;;;;;;5104876;28;20485;-89
2021/08/20 12:19:50;;;;;;;6.47;2.00;;;26.50;82.20;;;;;;5071542;28;20048;-87
2021/08/20 12:22:17;;;;;;;1.52;1.40;;;27.30;81.00;;;;;;5072753;28;20044;-88
2021/08/20 12:24:48;;;;;;;2.10;1.40;;;28.00;76.80;;;;;;5072676;28;20052;-87
2021/08/20 12:27:25;;;;;;;1.38;1.27;;;28.30;74.70;;;;;;5071259;28;20485;-88
2021/08/20 12:29:57;;;;;;;1.38;1.27;;;28.00;73.60;;;;;;5071872;28;20063;-88
2021/08/20 12:32:29;;;;;;;1.42;1.40;;;27.50;76.70;;;;;;5086203;28;20074;-88
2021/08/20 12:34:58;;;;;;;3.90;1.75;;;27.30;78.70;;;;;;5091601;28;20059;-90
2021/08/20 12:37:26;;;;;;;3.58;1.83;;;26.70;82.20;;;;;;5092112;28;20083;-87
2021/08/20 12:40:07;;;;;;;13.43;2.45;;;25.80;87.10;;;;;;5093348;28;20134;-90
2021/08/20 12:42:48;;;;;;;2.10;1.75;;;25.70;89.10;;;;;;5090633;28;20507;-89
2021/08/20 12:45:16;;;;;;;2.13;1.92;;;25.50;90.50;;;;;;5105685;28;20051;-89
2021/08/20 12:47:45;;;;;;;3.10;1.90;;;25.20;91.50;;;;;;5075330;28;20045;-88
2021/08/20 12:50:18;;;;;;;2.60;1.92;;;25.10;92.20;;;;;;5075173;28;20078;-87
2021/08/20 12:52:45;;;;;;;2.67;1.70;;;24.70;93.40;;;;;;5076955;28;20140;-93
2021/08/20 12:55:28;;;;;;;3.25;1.98;;;24.20;95.60;;;;;;5078833;28;20520;-89
2021/08/20 12:57:57;;;;;;;1.95;1.85;;;23.60;99.90;;;;;;5076964;28;20052;-87